createdAt,value
2023-04-20T00:00:33.912Z,3.40
2023-04-20T00:03:03.725Z,3.20
2023-04-20T00:05:32.515Z,3.60
2023-04-20T00:08:02.246Z,3.37
2023-04-20T00:10:30.775Z,3.47
2023-04-20T00:12:58.964Z,3.20
2023-04-20T00:15:27.153Z,3.40
2023-04-20T00:17:55.341Z,3.87
2023-04-20T00:20:25.564Z,3.20
2023-04-20T00:22:53.802Z,3.80
2023-04-20T00:25:22.205Z,3.33
2023-04-20T00:27:50.367Z,2.90
2023-04-20T00:30:18.598Z,3.40
2023-04-20T00:32:46.853Z,3.00
2023-04-20T00:35:15.734Z,3.47
2023-04-20T00:37:45.311Z,3.20
2023-04-20T00:40:13.816Z,4.50
2023-04-20T00:42:42.343Z,3.20
2023-04-20T00:45:11.576Z,3.40
2023-04-20T00:47:40.097Z,3.33
2023-04-20T00:50:10.763Z,3.50
2023-04-20T00:52:41.102Z,3.10
2023-04-20T00:55:11.526Z,3.37
2023-04-20T00:57:39.979Z,3.00
2023-04-20T01:00:11.026Z,3.30
2023-04-20T01:02:39.378Z,3.27
2023-04-20T01:05:10.352Z,3.43
2023-04-20T01:07:38.577Z,3.47
2023-04-20T01:10:10.350Z,3.27
2023-04-20T01:12:41.385Z,3.10
2023-04-20T01:15:11.908Z,3.60
2023-04-20T01:17:48.245Z,3.37
2023-04-20T01:20:16.737Z,3.80
2023-04-20T01:22:48.224Z,4.00
2023-04-20T01:25:17.288Z,3.80
2023-04-20T01:27:45.918Z,3.60
2023-04-20T01:30:14.751Z,3.60
2023-04-20T01:32:43.004Z,3.80
2023-04-20T01:35:11.654Z,3.50
2023-04-20T01:37:40.635Z,3.87
2023-04-20T01:40:13.497Z,3.73
2023-04-20T01:42:42.140Z,4.07
2023-04-20T01:45:11.304Z,3.77
2023-04-20T01:47:39.572Z,3.33
2023-04-20T01:50:09.597Z,3.37
2023-04-20T01:52:37.859Z,3.30
2023-04-20T01:55:07.578Z,3.17
2023-04-20T01:57:37.297Z,3.87
2023-04-20T02:00:08.573Z,4.00
2023-04-20T02:02:42.540Z,3.97
2023-04-20T02:05:25.179Z,4.13
2023-04-20T02:07:53.748Z,4.00
2023-04-20T02:10:22.505Z,3.63
2023-04-20T02:12:52.190Z,3.27
2023-04-20T02:15:20.478Z,3.73
2023-04-20T02:17:52.277Z,3.20
2023-04-20T02:20:21.260Z,3.60
2023-04-20T02:22:49.572Z,3.47
2023-04-20T02:25:18.585Z,3.83
2023-04-20T02:27:46.861Z,3.60
2023-04-20T02:30:16.651Z,3.80
2023-04-20T02:32:45.099Z,3.77
2023-04-20T02:35:13.419Z,3.60
2023-04-20T02:37:44.608Z,3.87
2023-04-20T02:40:14.604Z,3.33
2023-04-20T02:42:43.020Z,3.33
2023-04-20T02:45:13.310Z,3.80
2023-04-20T02:47:45.722Z,4.27
2023-04-20T02:50:15.732Z,3.80
2023-04-20T02:53:06.711Z,3.67
2023-04-20T02:55:37.554Z,3.80
2023-04-20T02:58:15.456Z,3.73
2023-04-20T03:01:05.031Z,3.10
2023-04-20T03:03:35.608Z,3.70
2023-04-20T03:06:06.367Z,3.40
2023-04-20T03:08:35.840Z,3.90
2023-04-20T03:11:20.886Z,4.60
2023-04-20T03:13:49.124Z,4.07
2023-04-20T03:16:18.237Z,4.50
2023-04-20T03:18:51.829Z,4.87
2023-04-20T03:21:20.704Z,4.67
2023-04-20T03:23:49.643Z,4.50
2023-04-20T03:26:18.642Z,5.10
2023-04-20T03:29:12.788Z,4.77
2023-04-20T03:31:41.537Z,5.50
2023-04-20T03:34:13.220Z,5.17
2023-04-20T03:36:41.496Z,4.97
2023-04-20T03:39:09.770Z,5.33
2023-04-20T03:41:39.366Z,5.13
2023-04-20T03:44:08.057Z,4.60
2023-04-20T03:46:38.370Z,4.80
2023-04-20T03:49:06.861Z,4.97
2023-04-20T03:51:36.487Z,5.30
2023-04-20T03:54:07.158Z,5.10
2023-04-20T03:56:35.849Z,5.20
2023-04-20T03:59:04.149Z,5.40
2023-04-20T04:01:34.029Z,6.30
2023-04-20T04:04:07.654Z,5.73
2023-04-20T04:06:48.209Z,5.37
2023-04-20T04:09:16.829Z,6.27
2023-04-20T04:11:47.135Z,5.33
2023-04-20T04:14:15.648Z,6.10
2023-04-20T04:16:44.087Z,5.87
2023-04-20T04:19:13.999Z,6.67
2023-04-20T04:21:42.619Z,6.10
2023-04-20T04:24:12.858Z,5.57
2023-04-20T04:26:59.601Z,5.43
2023-04-20T04:29:29.830Z,5.97
2023-04-20T04:32:08.233Z,6.37
2023-04-20T04:34:36.542Z,6.33
2023-04-20T04:37:04.860Z,6.03
2023-04-20T04:39:43.659Z,6.10
2023-04-20T04:42:19.456Z,6.53
2023-04-20T04:44:48.863Z,6.23
2023-04-20T04:47:25.406Z,6.20
2023-04-20T04:49:54.720Z,6.80
2023-04-20T04:52:24.285Z,7.03
2023-04-20T04:54:54.003Z,7.20
2023-04-20T04:57:22.250Z,6.77
2023-04-20T04:59:50.493Z,7.20
2023-04-20T05:02:19.324Z,7.47
2023-04-20T05:04:47.892Z,6.70
2023-04-20T05:07:17.405Z,7.37
2023-04-20T05:09:45.757Z,7.40
2023-04-20T05:12:15.377Z,7.60
2023-04-20T05:14:43.653Z,7.10
2023-04-20T05:17:12.628Z,6.80
2023-04-20T05:19:40.864Z,8.03
2023-04-20T05:22:09.070Z,7.40
2023-04-20T05:24:37.324Z,7.40
2023-04-20T05:27:05.654Z,6.97
2023-04-20T05:29:35.246Z,6.87
2023-04-20T05:32:03.664Z,6.90
2023-04-20T05:34:32.238Z,7.10
2023-04-20T05:37:00.877Z,7.67
2023-04-20T05:39:29.192Z,7.30
2023-04-20T05:41:58.011Z,7.03
2023-04-20T05:44:26.411Z,7.40
2023-04-20T05:46:55.974Z,7.00
2023-04-20T05:49:24.859Z,7.60
2023-04-20T05:51:53.186Z,6.67
2023-04-20T05:54:21.409Z,7.63
2023-04-20T05:56:49.625Z,6.87
2023-04-20T05:59:18.936Z,7.50
2023-04-20T06:01:47.421Z,7.87
2023-04-20T06:04:21.184Z,6.53
2023-04-20T06:06:52.592Z,7.00
2023-04-20T06:09:25.489Z,7.17
2023-04-20T06:11:53.793Z,7.00
2023-04-20T06:14:21.992Z,7.57
2023-04-20T06:16:50.226Z,8.03
2023-04-20T06:19:19.856Z,7.53
2023-04-20T06:21:48.273Z,7.87
2023-04-20T06:24:16.530Z,7.73
2023-04-20T06:26:44.727Z,7.97
2023-04-20T06:29:12.988Z,7.50
2023-04-20T06:31:41.342Z,8.07
2023-04-20T06:34:09.635Z,8.10
2023-04-20T06:36:43.301Z,7.33
2023-04-20T06:39:12.374Z,7.90
2023-04-20T06:41:40.656Z,8.13
2023-04-20T06:44:10.113Z,7.57
2023-04-20T06:46:38.464Z,7.07
2023-04-20T06:49:06.811Z,7.67
2023-04-20T06:51:35.075Z,7.43
2023-04-20T06:54:04.779Z,7.73
2023-04-20T06:56:35.359Z,6.97
2023-04-20T06:59:03.944Z,6.97
2023-04-20T07:01:32.305Z,7.97
2023-04-20T07:04:00.845Z,7.03
2023-04-20T07:06:29.253Z,8.00
2023-04-20T07:08:57.473Z,7.50
2023-04-20T07:11:27.104Z,7.10
2023-04-20T07:13:55.365Z,7.57
2023-04-20T07:16:23.732Z,7.17
2023-04-20T07:18:52.011Z,6.70
2023-04-20T07:21:20.238Z,6.87
2023-04-20T07:23:48.442Z,7.50
2023-04-20T07:26:16.973Z,6.33
2023-04-20T07:28:46.597Z,8.13
2023-04-20T07:31:14.886Z,7.30
2023-04-20T07:33:43.508Z,6.87
2023-04-20T07:36:11.963Z,7.60
2023-04-20T07:38:40.252Z,6.90
2023-04-20T07:41:11.011Z,7.10
2023-04-20T07:43:39.830Z,6.77
2023-04-20T07:46:10.556Z,7.50
2023-04-20T07:48:39.409Z,7.23
2023-04-20T07:51:07.798Z,7.43
2023-04-20T07:53:36.055Z,7.17
2023-04-20T07:56:04.288Z,7.97
2023-04-20T07:58:32.560Z,7.87
2023-04-20T08:01:00.831Z,7.97
2023-04-20T08:03:30.631Z,7.57
2023-04-20T08:05:59.191Z,8.93
2023-04-20T08:08:27.517Z,8.53
2023-04-20T08:10:58.556Z,8.70
2023-04-20T08:13:27.603Z,8.50
2023-04-20T08:15:56.053Z,8.03
2023-04-20T08:18:24.396Z,8.70
2023-04-20T08:20:54.231Z,9.13
2023-04-20T08:23:27.708Z,7.93
2023-04-20T08:25:56.235Z,8.53
2023-04-20T08:28:33.460Z,9.37
2023-04-20T08:31:02.671Z,8.20
2023-04-20T08:33:31.193Z,8.53
2023-04-20T08:36:00.821Z,8.27
2023-04-20T08:38:33.945Z,8.53
2023-04-20T08:41:03.131Z,8.10
2023-04-20T08:43:32.276Z,8.33
2023-04-20T08:46:02.798Z,8.47
2023-04-20T08:48:36.421Z,8.20
2023-04-20T08:51:07.391Z,7.27
2023-04-20T08:53:35.715Z,8.03
2023-04-20T08:56:04.243Z,8.07
2023-04-20T08:58:33.803Z,8.90
2023-04-20T09:01:02.150Z,8.70
2023-04-20T09:03:35.912Z,7.73
2023-04-20T09:06:07.103Z,8.60
2023-04-20T09:08:41.350Z,8.30
2023-04-20T09:11:21.980Z,8.10
2023-04-20T09:14:01.309Z,8.70
2023-04-20T09:16:30.366Z,9.20
2023-04-20T09:18:59.273Z,8.40
2023-04-20T09:21:30.557Z,9.30
2023-04-20T09:24:00.644Z,9.17
2023-04-20T09:26:29.432Z,8.53
2023-04-20T09:28:57.705Z,8.13
2023-04-20T09:31:25.958Z,9.53
2023-04-20T09:33:58.669Z,8.87
2023-04-20T09:36:38.906Z,9.60
2023-04-20T09:39:10.721Z,8.43
2023-04-20T09:41:40.749Z,8.50
2023-04-20T09:44:10.373Z,7.37
2023-04-20T09:46:41.516Z,8.97
2023-04-20T09:49:11.705Z,8.70
2023-04-20T09:51:45.177Z,7.73
2023-04-20T09:54:15.953Z,7.63
2023-04-20T09:56:44.732Z,7.23
2023-04-20T09:59:14.113Z,8.20
2023-04-20T10:01:42.736Z,7.30
2023-04-20T10:04:14.500Z,6.33
2023-04-20T10:06:55.876Z,6.40
2023-04-20T10:09:26.946Z,6.23
2023-04-20T10:12:06.976Z,5.77
2023-04-20T10:14:35.664Z,5.20
2023-04-20T10:17:07.606Z,5.63
2023-04-20T10:19:43.688Z,5.53
2023-04-20T10:22:26.786Z,6.40
2023-04-20T10:24:55.395Z,5.93
2023-04-20T10:27:24.068Z,5.53
2023-04-20T10:29:52.360Z,6.03
2023-04-20T10:32:25.622Z,6.20
2023-04-20T10:35:04.924Z,6.33
2023-04-20T10:37:35.373Z,5.60
2023-04-20T10:40:07.421Z,6.83
2023-04-20T10:42:44.103Z,5.47
2023-04-20T10:45:13.211Z,6.30
2023-04-20T10:47:41.829Z,6.00
2023-04-20T10:50:12.421Z,6.20
2023-04-20T10:52:44.745Z,5.70
2023-04-20T10:55:25.031Z,5.67
2023-04-20T10:57:53.924Z,5.47
2023-04-20T11:00:25.659Z,5.47
2023-04-20T11:02:56.439Z,5.33
2023-04-20T11:05:28.151Z,4.63
2023-04-20T11:07:59.534Z,5.10
2023-04-20T11:10:39.995Z,4.23
2023-04-20T11:13:08.654Z,5.33
2023-04-20T11:15:37.304Z,4.23
2023-04-20T11:18:09.276Z,4.77
2023-04-20T11:20:38.264Z,4.13
2023-04-20T11:23:07.868Z,4.93
2023-04-20T11:25:36.155Z,4.10
2023-04-20T11:28:09.051Z,4.57
2023-04-20T11:30:41.419Z,5.10
2023-04-20T11:33:10.521Z,4.73
2023-04-20T11:35:40.064Z,4.47
2023-04-20T11:38:10.170Z,3.93
2023-04-20T11:40:38.433Z,4.10
2023-04-20T11:43:06.874Z,4.53
2023-04-20T11:45:36.513Z,4.20
2023-04-20T11:48:06.832Z,4.37
2023-04-20T11:50:35.238Z,4.67
2023-04-20T11:53:03.462Z,4.93
2023-04-20T11:55:33.084Z,4.50
2023-04-20T11:58:01.296Z,4.60
2023-04-20T12:00:30.211Z,5.23
2023-04-20T12:02:59.955Z,4.40
2023-04-20T12:05:28.947Z,4.87
2023-04-20T12:08:00.096Z,4.30
2023-04-20T12:10:57.989Z,4.67
2023-04-20T12:13:26.921Z,5.13
2023-04-20T12:15:55.155Z,5.40
2023-04-20T12:18:23.407Z,5.40
2023-04-20T12:20:51.617Z,4.93
2023-04-20T12:23:20.368Z,5.23
2023-04-20T12:25:49.401Z,5.33
2023-04-20T12:28:19.155Z,5.17
2023-04-20T12:30:47.528Z,5.60
2023-04-20T12:33:16.063Z,5.27
2023-04-20T12:35:45.159Z,5.47
2023-04-20T12:38:14.654Z,5.47
2023-04-20T12:40:43.108Z,5.00
2023-04-20T12:43:11.560Z,5.10
2023-04-20T12:45:41.135Z,4.93
2023-04-20T12:48:09.791Z,5.17
2023-04-20T12:50:38.007Z,5.23
2023-04-20T12:53:06.657Z,5.23
2023-04-20T12:55:35.025Z,5.87
2023-04-20T12:58:03.284Z,4.87
2023-04-20T13:00:31.540Z,5.03
2023-04-20T13:03:01.499Z,5.23
2023-04-20T13:05:30.040Z,5.17
2023-04-20T13:07:58.256Z,5.00
2023-04-20T13:10:26.713Z,4.80
2023-04-20T13:12:56.011Z,5.40
2023-04-20T13:15:37.539Z,5.70
2023-04-20T13:18:09.739Z,5.90
2023-04-20T13:20:38.270Z,5.40
2023-04-20T13:23:06.626Z,5.23
2023-04-20T13:25:35.245Z,4.90
2023-04-20T13:28:05.121Z,4.87
2023-04-20T13:30:34.144Z,5.13
2023-04-20T13:33:02.454Z,5.37
2023-04-20T13:35:32.439Z,5.03
2023-04-20T13:38:00.791Z,6.60
2023-04-20T13:40:29.243Z,4.73
2023-04-20T13:42:58.165Z,5.10
2023-04-20T13:45:27.977Z,5.03
2023-04-20T13:47:56.405Z,4.90
2023-04-20T13:50:24.779Z,5.10
2023-04-20T13:52:54.364Z,4.97
2023-04-20T13:55:23.831Z,5.00
2023-04-20T13:57:53.539Z,4.97
2023-04-20T14:00:23.647Z,5.33
2023-04-20T14:02:52.045Z,5.13
2023-04-20T14:05:22.371Z,5.00
2023-04-20T14:07:50.613Z,5.60
2023-04-20T14:10:27.023Z,5.23
2023-04-20T14:12:55.453Z,5.30
2023-04-20T14:15:23.685Z,5.00
2023-04-20T14:17:52.791Z,5.10
2023-04-20T14:20:21.416Z,4.90
2023-04-20T14:22:49.651Z,4.40
2023-04-20T14:25:18.090Z,5.00
2023-04-20T14:27:47.664Z,5.40
2023-04-20T14:30:16.371Z,4.90
2023-04-20T14:32:56.043Z,4.90
2023-04-20T14:35:26.073Z,4.80
2023-04-20T14:37:54.467Z,4.90
2023-04-20T14:40:23.077Z,4.90
2023-04-20T14:42:52.648Z,4.80
2023-04-20T14:45:21.369Z,5.07
2023-04-20T14:47:54.755Z,4.53
2023-04-20T14:50:23.580Z,4.87
2023-04-20T14:52:52.877Z,4.80
2023-04-20T14:55:23.467Z,4.70
2023-04-20T14:57:56.791Z,5.70
2023-04-20T15:00:25.652Z,6.03
2023-04-20T15:02:56.319Z,5.33
2023-04-20T15:05:26.089Z,5.63
2023-04-20T15:07:54.407Z,5.50
2023-04-20T15:10:22.839Z,5.60
2023-04-20T15:12:51.091Z,5.67
2023-04-20T15:15:20.986Z,4.93
2023-04-20T15:17:49.513Z,5.60
2023-04-20T15:20:17.799Z,5.43
2023-04-20T15:22:46.070Z,5.27
2023-04-20T15:25:14.371Z,5.40
2023-04-20T15:27:42.580Z,5.57
2023-04-20T15:30:12.112Z,6.03
2023-04-20T15:32:41.789Z,5.07
2023-04-20T15:35:10.321Z,5.37
2023-04-20T15:37:38.520Z,5.43
2023-04-20T15:40:08.756Z,5.63
2023-04-20T15:42:36.997Z,5.37
2023-04-20T15:45:06.102Z,5.83
2023-04-20T15:47:34.357Z,5.83
2023-04-20T15:50:04.022Z,5.97
2023-04-20T15:52:32.862Z,5.30
2023-04-20T15:55:01.104Z,5.47
2023-04-20T15:57:30.829Z,5.10
2023-04-20T15:59:59.375Z,5.40
2023-04-20T16:02:28.399Z,5.53
2023-04-20T16:04:57.238Z,5.13
2023-04-20T16:07:27.390Z,5.60
2023-04-20T16:09:59.788Z,5.47
2023-04-20T16:12:27.991Z,5.40
2023-04-20T16:14:57.261Z,5.23
2023-04-20T16:17:25.786Z,5.37
2023-04-20T16:19:54.101Z,6.00
2023-04-20T16:22:22.661Z,4.97
2023-04-20T16:24:52.232Z,5.93
2023-04-20T16:27:20.467Z,5.83
2023-04-20T16:29:48.713Z,5.70
2023-04-20T16:32:17.013Z,6.50
2023-04-20T16:34:45.440Z,5.27
2023-04-20T16:37:13.720Z,5.90
2023-04-20T16:39:42.216Z,5.60
2023-04-20T16:42:11.794Z,6.87
2023-04-20T16:44:41.821Z,7.33
2023-04-20T16:47:10.412Z,6.97
2023-04-20T16:49:38.702Z,6.20
2023-04-20T16:52:06.971Z,7.00
2023-04-20T16:54:35.310Z,6.70
2023-04-20T16:57:03.633Z,6.07
2023-04-20T16:59:33.242Z,6.57
2023-04-20T17:02:01.684Z,7.37
2023-04-20T17:04:30.097Z,7.23
2023-04-20T17:06:58.459Z,6.33
2023-04-20T17:09:26.847Z,7.67
2023-04-20T17:11:56.238Z,6.27
2023-04-20T17:14:24.543Z,8.80
2023-04-20T17:16:56.522Z,8.53
2023-04-20T17:19:25.328Z,7.93
2023-04-20T17:21:53.904Z,8.60
2023-04-20T17:24:22.218Z,8.10
2023-04-20T17:26:50.622Z,7.43
2023-04-20T17:29:18.873Z,7.23
2023-04-20T17:31:47.755Z,7.60
2023-04-20T17:34:18.994Z,7.80
2023-04-20T17:36:47.758Z,8.13
2023-04-20T17:39:16.245Z,7.57
2023-04-20T17:41:45.102Z,8.47
2023-04-20T17:44:13.422Z,8.13
2023-04-20T17:46:41.945Z,10.00
2023-04-20T17:49:10.187Z,10.33
2023-04-20T17:51:39.863Z,14.17
2023-04-20T17:54:08.196Z,13.47
2023-04-20T17:56:36.557Z,8.30
2023-04-20T17:59:05.472Z,7.23
2023-04-20T18:01:57.700Z,7.03
2023-04-20T18:04:26.547Z,6.90
2023-04-20T18:06:56.427Z,7.17
2023-04-20T18:09:24.822Z,6.77
2023-04-20T18:11:53.788Z,7.30
2023-04-20T18:14:22.116Z,7.50
2023-04-20T18:16:52.084Z,7.73
2023-04-20T18:19:20.429Z,8.80
2023-04-20T18:21:49.498Z,8.90
2023-04-20T18:24:19.381Z,8.33
2023-04-20T18:26:47.769Z,8.67
2023-04-20T18:29:16.190Z,10.40
2023-04-20T18:31:46.495Z,11.23
2023-04-20T18:34:16.624Z,11.87
2023-04-20T18:36:45.022Z,11.00
2023-04-20T18:39:13.303Z,14.23
2023-04-20T18:41:42.966Z,11.30
2023-04-20T18:44:11.742Z,13.67
2023-04-20T18:46:42.124Z,14.07
2023-04-20T18:49:11.596Z,14.83
2023-04-20T18:51:39.947Z,15.33
2023-04-20T18:54:08.204Z,13.97
2023-04-20T18:56:38.585Z,13.07
2023-04-20T18:59:09.468Z,12.77
2023-04-20T19:01:40.705Z,13.10
2023-04-20T19:04:09.816Z,14.47
2023-04-20T19:06:38.220Z,13.77
2023-04-20T19:09:08.262Z,12.63
2023-04-20T19:11:36.950Z,14.40
2023-04-20T19:14:05.383Z,14.27
2023-04-20T19:16:35.681Z,14.07
2023-04-20T19:19:04.195Z,13.43
2023-04-20T19:21:33.184Z,15.27
2023-04-20T19:24:01.474Z,12.93
2023-04-20T19:26:29.877Z,12.13
2023-04-20T19:28:59.918Z,12.17
2023-04-20T19:31:33.986Z,12.63
2023-04-20T19:34:04.220Z,13.43
2023-04-20T19:36:32.787Z,17.17
2023-04-20T19:39:01.261Z,13.07
2023-04-20T19:41:29.581Z,13.70
2023-04-20T19:43:59.201Z,12.90
2023-04-20T19:46:27.540Z,12.30
2023-04-20T19:48:55.843Z,12.97
2023-04-20T19:51:26.139Z,14.57
2023-04-20T19:53:55.166Z,15.30
2023-04-20T19:56:23.616Z,14.80
2023-04-20T19:58:52.083Z,15.30
2023-04-20T20:01:45.616Z,13.10
2023-04-20T20:04:17.337Z,13.80
2023-04-20T20:06:50.021Z,12.43
2023-04-20T20:09:20.764Z,13.30
2023-04-20T20:11:50.905Z,12.50
2023-04-20T20:14:19.465Z,12.47
2023-04-20T20:16:48.130Z,12.53
2023-04-20T20:19:18.214Z,12.63
2023-04-20T20:21:48.154Z,12.53
2023-04-20T20:24:16.522Z,13.47
2023-04-20T20:26:44.865Z,12.40
2023-04-20T20:29:13.143Z,11.97
2023-04-20T20:31:41.603Z,12.17
2023-04-20T20:34:10.029Z,12.20
2023-04-20T20:36:38.387Z,12.07
2023-04-20T20:39:31.713Z,12.73
2023-04-20T20:42:00.015Z,13.43
2023-04-20T20:44:29.750Z,12.60
2023-04-20T20:46:58.226Z,13.07
2023-04-20T20:49:26.585Z,12.60
2023-04-20T20:51:54.898Z,12.20
2023-04-20T20:54:24.514Z,12.60
2023-04-20T20:56:52.779Z,12.47
2023-04-20T20:59:21.179Z,11.53
2023-04-20T21:01:49.633Z,11.80
2023-04-20T21:04:17.963Z,8.07
2023-04-20T21:06:46.237Z,6.60
2023-04-20T21:09:15.469Z,6.03
2023-04-20T21:11:45.093Z,5.37
2023-04-20T21:14:13.293Z,6.20
2023-04-20T21:16:41.558Z,6.67
2023-04-20T21:19:10.661Z,5.63
2023-04-20T21:21:38.907Z,5.27
2023-04-20T21:24:07.621Z,2.80
2023-04-20T21:26:35.987Z,2.40
2023-04-20T21:29:05.844Z,3.77
2023-04-20T21:31:34.679Z,3.30
2023-04-20T21:34:02.992Z,3.17
2023-04-20T21:36:32.639Z,3.10
2023-04-20T21:39:00.847Z,2.70
2023-04-20T21:41:32.131Z,3.37
2023-04-20T21:44:00.596Z,3.23
2023-04-20T21:46:30.394Z,4.07
2023-04-20T21:48:58.967Z,3.93
2023-04-20T21:51:28.760Z,4.10
2023-04-20T21:53:56.976Z,3.90
2023-04-20T21:56:25.215Z,4.50
2023-04-20T21:58:53.528Z,4.70
2023-04-20T22:01:26.199Z,4.23
2023-04-20T22:03:58.124Z,5.70
2023-04-20T22:06:26.857Z,7.60
2023-04-20T22:08:55.117Z,7.07
2023-04-20T22:11:23.357Z,7.53
2023-04-20T22:13:51.777Z,7.73
2023-04-20T22:16:21.068Z,7.53
2023-04-20T22:18:49.820Z,8.37
2023-04-20T22:21:19.383Z,9.40
2023-04-20T22:23:47.617Z,9.77
2023-04-20T22:26:16.832Z,10.47
2023-04-20T22:28:45.442Z,10.07
2023-04-20T22:31:14.186Z,10.83
2023-04-20T22:33:42.589Z,10.93
2023-04-20T22:36:11.375Z,11.50
2023-04-20T22:38:41.099Z,11.33
2023-04-20T22:41:09.377Z,10.77
2023-04-20T22:43:37.559Z,10.53
2023-04-20T22:46:05.976Z,10.40
2023-04-20T22:48:34.193Z,10.33
2023-04-20T22:51:02.903Z,10.17
2023-04-20T22:53:31.091Z,9.93
2023-04-20T22:56:06.139Z,9.37
2023-04-20T22:58:34.466Z,10.00
2023-04-20T23:01:02.817Z,9.30
2023-04-20T23:03:31.254Z,9.23
2023-04-20T23:05:59.964Z,9.60
2023-04-20T23:08:28.663Z,10.57
2023-04-20T23:10:56.979Z,9.10
2023-04-20T23:13:27.349Z,9.63
2023-04-20T23:15:55.759Z,10.40
2023-04-20T23:18:23.995Z,10.73
2023-04-20T23:20:52.222Z,9.93
2023-04-20T23:23:20.425Z,8.63
2023-04-20T23:25:49.473Z,9.30
2023-04-20T23:28:17.642Z,9.17
2023-04-20T23:30:47.220Z,8.40
2023-04-20T23:33:15.850Z,8.83
2023-04-20T23:35:44.103Z,9.70
2023-04-20T23:38:12.310Z,9.30
2023-04-20T23:40:40.568Z,9.57
2023-04-20T23:43:08.775Z,10.30
2023-04-20T23:45:37.093Z,9.50
2023-04-20T23:48:07.581Z,8.87
2023-04-20T23:50:37.016Z,9.30
2023-04-20T23:53:05.742Z,8.70
2023-04-20T23:55:34.132Z,8.90
2023-04-20T23:58:02.334Z,8.20
